Terminal Aerodrome Forecast
Issued by NWS Raleigh/Durham, NC

Home | Current Version | Previous Version | Text Only | Print | Product List | Glossary On
Versions: 1 2 3 4 5 6 7 8 9 10 11 12 13 14 15 16 17 18 19 20 21 22 23 24 25 26 27 28 29 30 31 32
000
FTUS42 KRAH 210534
TAFFAY
TAF
KFAY 210534Z 2106/2206 VRB03KT 1SM BR OVC005
      TEMPO 2106/2110 1/2SM FG OVC001
     FM211000 00000KT 1/2SM FG OVC001
      TEMPO 2112/2116 2SM BR OVC006
     FM211600 VRB03KT 5SM BR OVC007
     FM220200 VRB03KT 2SM BR OVC003=

USA.gov is the U.S. government's official web portal to all federal, state and local government web resources and services.